createdAt,value
2023-04-21T00:00:41.830Z,0.09
2023-04-21T00:01:42.710Z,0.09
2023-04-21T00:02:43.255Z,0.09
2023-04-21T00:03:43.741Z,0.09
2023-04-21T00:04:44.561Z,0.09
2023-04-21T00:05:45.059Z,0.09
2023-04-21T00:05:53.839Z,0.09
2023-04-21T00:06:54.418Z,0.09
2023-04-21T00:07:54.842Z,0.09
2023-04-21T00:08:55.359Z,0.09
2023-04-21T00:09:56.233Z,0.09
2023-04-21T00:10:56.654Z,0.09
2023-04-21T00:11:57.224Z,0.09
2023-04-21T00:12:57.760Z,0.09
2023-04-21T00:13:58.353Z,0.09
2023-04-21T00:14:58.807Z,0.09
2023-04-21T00:15:59.288Z,0.09
2023-04-21T00:16:59.733Z,0.09
2023-04-21T00:18:00.228Z,0.09
2023-04-21T00:18:08.782Z,0.09
2023-04-21T00:19:09.107Z,0.09
2023-04-21T00:20:09.641Z,0.09
2023-04-21T00:21:10.026Z,0.09
2023-04-21T00:22:10.201Z,0.09
2023-04-21T00:23:10.721Z,0.09
2023-04-21T00:24:10.911Z,0.09
2023-04-21T00:25:14.207Z,0.13
2023-04-21T00:26:12.668Z,0.09
2023-04-21T00:27:12.135Z,0.09
2023-04-21T00:28:12.551Z,0.09
2023-04-21T00:29:13.338Z,0.09
2023-04-21T00:29:22.137Z,0.09
2023-04-21T00:30:22.554Z,0.09
2023-04-21T00:31:22.985Z,0.09
2023-04-21T00:32:23.439Z,0.09
2023-04-21T00:33:23.853Z,0.09
2023-04-21T00:34:24.316Z,0.09
2023-04-21T00:35:24.891Z,0.09
2023-04-21T00:36:25.202Z,0.09
2023-04-21T00:37:25.646Z,0.09
2023-04-21T00:38:26.039Z,0.09
2023-04-21T00:39:26.494Z,0.09
2023-04-21T00:40:27.044Z,0.09
2023-04-21T00:40:35.661Z,0.09
2023-04-21T00:41:36.143Z,0.09
2023-04-21T00:42:36.523Z,0.09
2023-04-21T00:43:36.950Z,0.09
2023-04-21T00:44:37.448Z,0.09
2023-04-21T00:45:37.939Z,0.09
2023-04-21T00:46:38.402Z,0.09
2023-04-21T00:47:38.797Z,0.09
2023-04-21T00:48:39.565Z,0.09
2023-04-21T00:49:40.038Z,0.09
2023-04-21T00:50:40.798Z,0.09
2023-04-21T00:51:41.070Z,0.09
2023-04-21T00:51:49.758Z,0.09
2023-04-21T00:52:50.098Z,0.09
2023-04-21T00:53:50.590Z,0.09
2023-04-21T00:54:50.964Z,0.09
2023-04-21T00:55:51.515Z,0.09
2023-04-21T00:56:52.038Z,0.09
2023-04-21T00:57:52.809Z,0.09
2023-04-21T00:58:53.569Z,0.09
2023-04-21T00:59:54.055Z,0.09
2023-04-21T01:00:54.695Z,0.09
2023-04-21T01:01:55.187Z,0.09
2023-04-21T01:02:55.695Z,0.09
2023-04-21T01:03:56.139Z,0.09
2023-04-21T01:04:05.464Z,0.09
2023-04-21T01:05:06.074Z,0.09
2023-04-21T01:06:06.589Z,0.09
2023-04-21T01:07:07.401Z,0.09
2023-04-21T01:08:08.122Z,0.09
2023-04-21T01:09:08.536Z,0.09
2023-04-21T01:10:09.080Z,0.09
2023-04-21T01:11:09.602Z,0.09
2023-04-21T01:12:10.196Z,0.13
2023-04-21T01:13:10.594Z,0.09
2023-04-21T01:14:11.210Z,0.09
2023-04-21T01:15:11.661Z,0.09
2023-04-21T01:15:20.290Z,0.09
2023-04-21T01:16:20.821Z,0.13
2023-04-21T01:17:21.200Z,0.09
2023-04-21T01:18:21.752Z,0.09
2023-04-21T01:19:22.059Z,0.09
2023-04-21T01:20:22.621Z,0.09
2023-04-21T01:21:23.086Z,0.09
2023-04-21T01:22:23.534Z,0.09
2023-04-21T01:23:23.969Z,0.09
2023-04-21T01:24:24.459Z,0.09
2023-04-21T01:25:24.855Z,0.09
2023-04-21T01:26:25.276Z,0.09
2023-04-21T01:26:33.977Z,0.09
2023-04-21T01:27:34.387Z,0.13
2023-04-21T01:28:34.797Z,0.09
2023-04-21T01:29:35.283Z,0.09
2023-04-21T01:30:35.722Z,0.09
2023-04-21T01:31:36.242Z,0.13
2023-04-21T01:32:36.799Z,0.09
2023-04-21T01:33:37.130Z,0.09
2023-04-21T01:34:37.477Z,0.09
2023-04-21T01:35:38.937Z,0.09
2023-04-21T01:36:38.424Z,0.09
2023-04-21T01:37:38.840Z,0.09
2023-04-21T01:37:47.945Z,0.09
2023-04-21T01:38:48.305Z,0.09
2023-04-21T01:39:52.075Z,0.09
2023-04-21T01:40:49.311Z,0.09
2023-04-21T01:41:49.746Z,0.09
2023-04-21T01:42:50.177Z,0.09
2023-04-21T01:43:50.544Z,0.09
2023-04-21T01:44:50.967Z,0.09
2023-04-21T01:45:51.469Z,0.09
2023-04-21T01:46:51.905Z,0.09
2023-04-21T01:47:52.319Z,0.09
2023-04-21T01:48:52.658Z,0.09
2023-04-21T01:49:01.239Z,0.09
2023-04-21T01:50:01.603Z,0.09
2023-04-21T01:51:02.090Z,0.09
2023-04-21T01:52:02.612Z,0.09
2023-04-21T01:53:03.027Z,0.09
2023-04-21T01:54:03.477Z,0.09
2023-04-21T01:55:04.233Z,0.09
2023-04-21T01:56:04.807Z,0.09
2023-04-21T01:57:06.296Z,0.09
2023-04-21T01:58:05.764Z,0.09
2023-04-21T01:59:06.159Z,0.09
2023-04-21T02:00:06.567Z,0.09
2023-04-21T02:00:15.166Z,0.09
2023-04-21T02:01:16.040Z,0.09
2023-04-21T02:02:16.544Z,0.09
2023-04-21T02:03:17.145Z,0.09
2023-04-21T02:04:17.860Z,0.09
2023-04-21T02:05:18.104Z,0.09
2023-04-21T02:06:18.619Z,0.09
2023-04-21T02:07:19.108Z,0.09
2023-04-21T02:08:19.662Z,0.09
2023-04-21T02:09:20.213Z,0.09
2023-04-21T02:10:20.543Z,0.09
2023-04-21T02:11:20.981Z,0.09
2023-04-21T02:11:29.620Z,0.09
2023-04-21T02:12:30.064Z,0.09
2023-04-21T02:13:30.534Z,0.09
2023-04-21T02:14:31.048Z,0.09
2023-04-21T02:15:31.481Z,0.09
2023-04-21T02:16:31.952Z,0.09
2023-04-21T02:17:32.434Z,0.09
2023-04-21T02:18:33.046Z,0.09
2023-04-21T02:19:33.493Z,0.09
2023-04-21T02:20:33.870Z,0.09
2023-04-21T02:21:34.414Z,0.09
2023-04-21T02:21:43.051Z,0.09
2023-04-21T02:22:43.618Z,0.09
2023-04-21T02:23:44.042Z,0.09
2023-04-21T02:24:44.458Z,0.09
2023-04-21T02:25:45.007Z,0.09
2023-04-21T02:26:45.535Z,0.09
2023-04-21T02:27:46.019Z,0.09
2023-04-21T02:28:46.545Z,0.09
2023-04-21T02:29:47.021Z,0.09
2023-04-21T02:30:47.372Z,0.09
2023-04-21T02:32:00.645Z,0.09
2023-04-21T02:32:48.619Z,0.09
2023-04-21T02:32:57.715Z,0.09
2023-04-21T02:33:58.315Z,0.09
2023-04-21T02:34:58.736Z,0.09
2023-04-21T02:35:59.230Z,0.09
2023-04-21T02:36:59.674Z,0.09
2023-04-21T02:38:00.221Z,0.09
2023-04-21T02:39:00.637Z,0.09
2023-04-21T02:40:01.036Z,0.09
2023-04-21T02:41:01.441Z,0.09
2023-04-21T02:42:02.118Z,0.09
2023-04-21T02:43:02.458Z,0.09
2023-04-21T02:43:11.518Z,0.09
2023-04-21T02:44:12.148Z,0.09
2023-04-21T02:45:12.582Z,0.09
2023-04-21T02:46:12.890Z,0.09
2023-04-21T02:47:13.277Z,0.09
2023-04-21T02:48:13.699Z,0.09
2023-04-21T02:49:14.110Z,0.09
2023-04-21T02:50:14.518Z,0.09
2023-04-21T02:51:15.348Z,0.09
2023-04-21T02:52:15.911Z,0.09
2023-04-21T02:53:16.412Z,0.09
2023-04-21T02:54:16.865Z,0.09
2023-04-21T02:54:25.511Z,0.09
2023-04-21T02:55:25.967Z,0.09
2023-04-21T02:56:26.399Z,0.09
2023-04-21T02:57:26.821Z,0.09
2023-04-21T02:58:27.502Z,0.09
2023-04-21T02:59:27.861Z,0.09
2023-04-21T03:00:28.506Z,0.09
2023-04-21T03:01:28.853Z,0.09
2023-04-21T03:02:29.382Z,0.09
2023-04-21T03:03:30.291Z,0.09
2023-04-21T03:04:30.629Z,0.09
2023-04-21T03:05:31.001Z,0.09
2023-04-21T03:05:42.660Z,0.09
2023-04-21T03:06:43.067Z,0.09
2023-04-21T03:07:43.568Z,0.09
2023-04-21T03:08:44.335Z,0.09
2023-04-21T03:09:44.764Z,0.09
2023-04-21T03:10:45.138Z,0.09
2023-04-21T03:11:45.579Z,0.09
2023-04-21T03:12:45.969Z,0.09
2023-04-21T03:13:46.447Z,0.09
2023-04-21T03:14:46.847Z,0.09
2023-04-21T03:15:47.613Z,0.09
2023-04-21T03:16:48.048Z,0.09
2023-04-21T03:16:56.763Z,0.09
2023-04-21T03:17:57.407Z,0.09
2023-04-21T03:18:58.124Z,0.09
2023-04-21T03:19:58.609Z,0.09
2023-04-21T03:20:59.133Z,0.09
2023-04-21T03:21:59.513Z,0.09
2023-04-21T03:22:59.926Z,0.09
2023-04-21T03:24:00.454Z,0.09
2023-04-21T03:25:00.897Z,0.09
2023-04-21T03:26:01.323Z,0.09
2023-04-21T03:27:01.699Z,0.09
2023-04-21T03:28:03.258Z,0.09
2023-04-21T03:28:11.923Z,0.09
2023-04-21T03:29:12.237Z,0.09
2023-04-21T03:30:13.592Z,0.13
2023-04-21T03:31:13.019Z,0.13
2023-04-21T03:32:13.668Z,0.09
2023-04-21T03:33:14.191Z,0.09
2023-04-21T03:34:14.761Z,0.09
2023-04-21T03:35:15.155Z,0.09
2023-04-21T03:36:15.640Z,0.09
2023-04-21T03:37:15.994Z,0.09
2023-04-21T03:38:16.447Z,0.09
2023-04-21T03:38:25.118Z,0.13
2023-04-21T03:39:25.871Z,0.09
2023-04-21T03:40:26.210Z,0.13
2023-04-21T03:41:26.617Z,0.09
2023-04-21T03:42:27.137Z,0.09
2023-04-21T03:43:27.672Z,0.09
2023-04-21T03:44:28.126Z,0.09
2023-04-21T03:45:28.587Z,0.09
2023-04-21T03:46:29.107Z,0.09
2023-04-21T03:47:29.471Z,0.13
2023-04-21T03:48:29.889Z,0.13
2023-04-21T03:49:31.688Z,0.13
2023-04-21T03:49:40.418Z,0.13
2023-04-21T03:50:40.656Z,0.13
2023-04-21T03:51:42.364Z,0.13
2023-04-21T03:52:41.761Z,0.13
2023-04-21T03:53:42.213Z,0.13
2023-04-21T03:54:42.831Z,0.13
2023-04-21T03:55:43.255Z,0.13
2023-04-21T03:56:43.676Z,0.09
2023-04-21T03:57:44.097Z,0.13
2023-04-21T03:58:44.596Z,0.13
2023-04-21T03:59:45.026Z,0.13
2023-04-21T03:59:53.714Z,0.13
2023-04-21T04:00:54.021Z,0.13
2023-04-21T04:01:54.493Z,0.13
2023-04-21T04:02:55.009Z,0.16
2023-04-21T04:03:55.379Z,0.13
2023-04-21T04:04:56.134Z,0.13
2023-04-21T04:05:56.345Z,0.13
2023-04-21T04:06:56.776Z,0.16
2023-04-21T04:07:57.239Z,0.16
2023-04-21T04:08:58.103Z,0.13
2023-04-21T04:09:58.644Z,0.13
2023-04-21T04:10:59.237Z,0.13
2023-04-21T04:11:10.919Z,0.13
2023-04-21T04:12:11.922Z,0.13
2023-04-21T04:13:11.987Z,0.13
2023-04-21T04:14:12.458Z,0.13
2023-04-21T04:15:12.921Z,0.13
2023-04-21T04:16:13.661Z,0.13
2023-04-21T04:17:13.957Z,0.13
2023-04-21T04:18:14.321Z,0.13
2023-04-21T04:19:14.748Z,0.13
2023-04-21T04:20:15.167Z,0.13
2023-04-21T04:21:15.573Z,0.16
2023-04-21T04:21:24.790Z,0.16
2023-04-21T04:22:25.276Z,0.13
2023-04-21T04:23:25.773Z,0.13
2023-04-21T04:24:26.212Z,0.16
2023-04-21T04:25:26.816Z,0.13
2023-04-21T04:26:27.282Z,0.16
2023-04-21T04:27:27.683Z,0.16
2023-04-21T04:28:28.058Z,0.16
2023-04-21T04:29:28.350Z,0.16
2023-04-21T04:30:29.049Z,0.16
2023-04-21T04:31:29.580Z,0.16
2023-04-21T04:32:30.363Z,0.16
2023-04-21T04:32:39.521Z,0.16
2023-04-21T04:33:39.807Z,0.16
2023-04-21T04:34:40.243Z,0.16
2023-04-21T04:35:41.031Z,0.16
2023-04-21T04:36:41.384Z,0.16
2023-04-21T04:37:41.767Z,0.16
2023-04-21T04:38:42.139Z,0.16
2023-04-21T04:39:42.519Z,0.16
2023-04-21T04:40:43.152Z,0.23
2023-04-21T04:41:43.599Z,0.16
2023-04-21T04:42:44.068Z,0.23
2023-04-21T04:42:53.117Z,0.16
2023-04-21T04:43:53.765Z,0.16
2023-04-21T04:44:54.236Z,0.16
2023-04-21T04:45:54.444Z,0.23
2023-04-21T04:46:54.586Z,0.23
2023-04-21T04:47:54.913Z,0.16
2023-04-21T04:48:55.276Z,0.16
2023-04-21T04:49:56.688Z,0.16
2023-04-21T04:50:56.548Z,0.23
2023-04-21T04:51:57.284Z,0.23
2023-04-21T04:52:57.678Z,0.16
2023-04-21T04:53:06.399Z,0.16
2023-04-21T04:54:06.681Z,0.16
2023-04-21T04:55:07.080Z,0.16
2023-04-21T04:56:07.544Z,0.16
2023-04-21T04:57:07.868Z,0.16
2023-04-21T04:58:08.296Z,0.16
2023-04-21T04:59:08.673Z,0.23
2023-04-21T05:00:09.443Z,0.23
2023-04-21T05:01:10.088Z,0.23
2023-04-21T05:02:10.652Z,0.23
2023-04-21T05:03:11.237Z,0.16
2023-04-21T05:04:11.700Z,0.27
2023-04-21T05:04:20.760Z,0.27
2023-04-21T05:05:20.811Z,0.27
2023-04-21T05:06:21.467Z,0.27
2023-04-21T05:07:21.886Z,0.27
2023-04-21T05:08:22.342Z,0.27
2023-04-21T05:09:23.186Z,0.23
2023-04-21T05:10:23.705Z,0.31
2023-04-21T05:11:24.261Z,0.27
2023-04-21T05:12:24.626Z,0.27
2023-04-21T05:13:25.388Z,0.27
2023-04-21T05:14:25.859Z,0.27
2023-04-21T05:14:34.570Z,0.27
2023-04-21T05:15:35.013Z,0.27
2023-04-21T05:16:35.657Z,0.27
2023-04-21T05:17:36.061Z,0.27
2023-04-21T05:18:36.390Z,0.27
2023-04-21T05:19:36.798Z,0.27
2023-04-21T05:20:37.165Z,0.27
2023-04-21T05:21:37.640Z,0.27
2023-04-21T05:22:38.026Z,0.27
2023-04-21T05:23:38.586Z,0.27
2023-04-21T05:24:39.406Z,0.27
2023-04-21T05:25:39.828Z,0.31
2023-04-21T05:26:40.563Z,0.27
2023-04-21T05:26:49.459Z,0.31
2023-04-21T05:27:49.820Z,0.31
2023-04-21T05:28:50.273Z,0.31
2023-04-21T05:29:50.689Z,0.31
2023-04-21T05:30:51.168Z,0.31
2023-04-21T05:31:51.732Z,0.31
2023-04-21T05:32:52.528Z,0.31
2023-04-21T05:33:52.924Z,0.31
2023-04-21T05:34:53.306Z,0.31
2023-04-21T05:35:53.720Z,0.31
2023-04-21T05:36:54.310Z,0.31
2023-04-21T05:37:03.285Z,0.34
2023-04-21T05:38:04.048Z,0.34
2023-04-21T05:39:04.442Z,0.34
2023-04-21T05:40:04.991Z,0.34
2023-04-21T05:41:05.296Z,0.34
2023-04-21T05:42:05.785Z,0.34
2023-04-21T05:43:06.252Z,0.34
2023-04-21T05:44:06.785Z,0.31
2023-04-21T05:45:07.236Z,0.34
2023-04-21T05:46:07.806Z,0.34
2023-04-21T05:47:08.279Z,0.34
2023-04-21T05:48:11.104Z,0.34
2023-04-21T05:48:17.740Z,0.34
2023-04-21T05:49:18.273Z,0.34
2023-04-21T05:50:18.601Z,0.34
2023-04-21T05:51:19.012Z,0.34
2023-04-21T05:52:19.411Z,0.34
2023-04-21T05:53:19.729Z,0.34
2023-04-21T05:54:20.348Z,0.38
2023-04-21T05:55:20.470Z,0.34
2023-04-21T05:56:21.794Z,0.34
2023-04-21T05:57:21.233Z,0.34
2023-04-21T05:58:21.679Z,0.34
2023-04-21T05:59:22.094Z,0.34
2023-04-21T05:59:31.631Z,0.34
2023-04-21T06:00:31.918Z,0.34
2023-04-21T06:01:32.330Z,0.38
2023-04-21T06:02:33.136Z,0.41
2023-04-21T06:03:33.415Z,0.41
2023-04-21T06:04:33.721Z,0.38
2023-04-21T06:05:34.057Z,0.38
2023-04-21T06:06:34.457Z,0.38
2023-04-21T06:07:35.040Z,0.38
2023-04-21T06:08:35.547Z,0.38
2023-04-21T06:09:36.143Z,0.38
2023-04-21T06:10:36.339Z,0.38
2023-04-21T06:11:36.847Z,0.38
2023-04-21T06:11:46.731Z,0.38
2023-04-21T06:12:47.173Z,0.38
2023-04-21T06:13:48.047Z,0.38
2023-04-21T06:14:48.392Z,0.38
2023-04-21T06:15:48.855Z,0.38
2023-04-21T06:16:49.148Z,0.38
2023-04-21T06:17:49.621Z,0.34
2023-04-21T06:18:50.001Z,0.34
2023-04-21T06:19:50.394Z,0.38
2023-04-21T06:20:50.823Z,0.38
2023-04-21T06:21:51.114Z,0.38
2023-04-21T06:22:51.563Z,0.38
2023-04-21T06:23:00.335Z,0.38
2023-04-21T06:24:01.120Z,0.38
2023-04-21T06:25:02.642Z,0.38
2023-04-21T06:26:02.052Z,0.38
2023-04-21T06:27:02.582Z,0.38
2023-04-21T06:28:03.193Z,0.38
2023-04-21T06:29:03.682Z,0.38
2023-04-21T06:30:04.136Z,0.45
2023-04-21T06:31:08.422Z,0.41
2023-04-21T06:32:05.127Z,0.41
2023-04-21T06:33:05.747Z,0.41
2023-04-21T06:33:14.371Z,0.48
2023-04-21T06:34:15.339Z,0.48
2023-04-21T06:35:15.809Z,0.48
2023-04-21T06:36:17.967Z,0.41
2023-04-21T06:37:16.868Z,0.38
2023-04-21T06:38:17.390Z,0.41
2023-04-21T06:39:17.886Z,0.38
2023-04-21T06:40:18.218Z,0.38
2023-04-21T06:41:18.646Z,0.38
2023-04-21T06:42:19.129Z,0.38
2023-04-21T06:43:19.648Z,0.38
2023-04-21T06:44:20.317Z,0.38
2023-04-21T06:44:28.659Z,0.38
2023-04-21T06:45:29.215Z,0.45
2023-04-21T06:46:30.838Z,0.48
2023-04-21T06:47:30.283Z,0.45
2023-04-21T06:48:30.929Z,0.38
2023-04-21T06:49:31.389Z,0.41
2023-04-21T06:50:31.809Z,0.38
2023-04-21T06:51:32.272Z,0.34
2023-04-21T06:52:32.709Z,0.34
2023-04-21T06:53:33.267Z,0.34
2023-04-21T06:54:33.758Z,0.38
2023-04-21T06:55:34.211Z,0.34
2023-04-21T06:55:44.133Z,0.38
2023-04-21T06:56:43.593Z,0.34
2023-04-21T06:57:44.309Z,0.38
2023-04-21T06:58:44.835Z,0.38
2023-04-21T06:59:45.593Z,0.38
2023-04-21T07:00:46.081Z,0.38
2023-04-21T07:01:46.529Z,0.34
2023-04-21T07:02:47.248Z,0.34
2023-04-21T07:03:47.997Z,0.34
2023-04-21T07:04:48.473Z,0.34
2023-04-21T07:05:48.920Z,0.38
2023-04-21T07:06:49.472Z,0.38
2023-04-21T07:06:59.204Z,0.38
2023-04-21T07:07:58.504Z,0.41
2023-04-21T07:08:59.177Z,0.38
2023-04-21T07:09:59.689Z,0.38
2023-04-21T07:11:00.364Z,0.55
2023-04-21T07:12:00.806Z,0.52
2023-04-21T07:13:01.300Z,0.48
2023-04-21T07:14:01.808Z,0.41
2023-04-21T07:15:02.226Z,0.41
2023-04-21T07:16:02.548Z,0.38
2023-04-21T07:17:03.105Z,0.34
2023-04-21T07:18:03.653Z,0.38
2023-04-21T07:18:15.276Z,0.38
2023-04-21T07:19:15.712Z,0.38
2023-04-21T07:20:16.579Z,0.38
2023-04-21T07:21:17.428Z,0.41
2023-04-21T07:22:17.855Z,0.41
2023-04-21T07:23:18.338Z,0.55
2023-04-21T07:24:18.809Z,0.48
2023-04-21T07:25:19.330Z,0.45
2023-04-21T07:26:19.717Z,0.45
2023-04-21T07:27:20.147Z,0.59
2023-04-21T07:28:20.967Z,0.66
2023-04-21T07:29:21.657Z,0.48
2023-04-21T07:29:33.594Z,0.48
2023-04-21T07:30:34.253Z,0.52
2023-04-21T07:31:34.872Z,0.59
2023-04-21T07:32:35.357Z,0.52
2023-04-21T07:33:35.505Z,0.38
2023-04-21T07:34:36.182Z,0.41
2023-04-21T07:35:36.582Z,0.48
2023-04-21T07:36:37.121Z,0.77
2023-04-21T07:37:38.584Z,0.66
2023-04-21T07:38:38.087Z,0.77
2023-04-21T07:39:38.592Z,0.73
2023-04-21T07:40:39.065Z,0.66
2023-04-21T07:40:47.698Z,0.66
2023-04-21T07:41:48.089Z,0.59
2023-04-21T07:42:48.437Z,0.84
2023-04-21T07:43:49.483Z,0.80
2023-04-21T07:44:49.612Z,0.80
2023-04-21T07:45:50.210Z,0.70
2023-04-21T07:46:50.456Z,0.80
2023-04-21T07:47:50.915Z,0.59
2023-04-21T07:48:51.421Z,0.45
2023-04-21T07:49:51.980Z,0.59
2023-04-21T07:50:52.477Z,0.45
2023-04-21T07:51:01.114Z,0.45
2023-04-21T07:52:01.834Z,0.45
2023-04-21T07:53:02.370Z,0.59
2023-04-21T07:54:02.793Z,0.66
2023-04-21T07:55:03.363Z,0.52
2023-04-21T07:56:04.147Z,0.55
2023-04-21T07:57:04.497Z,0.59
2023-04-21T07:58:04.897Z,0.55
2023-04-21T07:59:05.294Z,0.59
2023-04-21T08:00:05.890Z,0.80
2023-04-21T08:01:06.419Z,0.66
2023-04-21T08:02:06.977Z,0.70
2023-04-21T08:02:15.716Z,0.70
2023-04-21T08:03:15.886Z,1.16
2023-04-21T08:04:16.220Z,0.70
2023-04-21T08:05:16.686Z,0.80
2023-04-21T08:06:17.536Z,1.16
2023-04-21T08:07:17.500Z,1.23
2023-04-21T08:08:18.094Z,1.37
2023-04-21T08:09:18.860Z,1.77
2023-04-21T08:10:19.144Z,1.98
2023-04-21T08:11:19.578Z,1.84
2023-04-21T08:12:20.182Z,1.84
2023-04-21T08:12:29.821Z,1.80
2023-04-21T08:13:30.185Z,1.23
2023-04-21T08:14:30.609Z,2.01
2023-04-21T08:15:31.059Z,1.80
2023-04-21T08:16:31.455Z,1.37
2023-04-21T08:17:31.869Z,1.02
2023-04-21T08:18:32.161Z,1.80
2023-04-21T08:19:32.623Z,2.05
2023-04-21T08:20:33.334Z,2.05
2023-04-21T08:21:33.983Z,2.01
2023-04-21T08:22:34.933Z,1.12
2023-04-21T08:23:35.339Z,2.01
2023-04-21T08:23:43.934Z,1.94
2023-04-21T08:24:44.575Z,1.09
2023-04-21T08:25:45.034Z,1.62
2023-04-21T08:26:45.770Z,1.66
2023-04-21T08:27:45.657Z,1.55
2023-04-21T08:28:46.129Z,1.37
2023-04-21T08:29:46.559Z,1.41
2023-04-21T08:30:47.170Z,1.77
2023-04-21T08:31:47.694Z,1.80
2023-04-21T08:32:48.115Z,1.84
2023-04-21T08:34:00.546Z,1.84
2023-04-21T08:34:48.957Z,1.80
2023-04-21T08:36:01.645Z,1.80
2023-04-21T08:36:05.490Z,1.80
2023-04-21T08:36:58.451Z,1.80
2023-04-21T08:37:59.301Z,1.80
2023-04-21T08:38:59.734Z,1.87
2023-04-21T08:40:00.381Z,1.80
2023-04-21T08:41:00.911Z,1.80
2023-04-21T08:42:02.288Z,1.84
2023-04-21T08:43:01.836Z,1.84
2023-04-21T08:44:02.317Z,1.80
2023-04-21T08:45:02.944Z,1.37
2023-04-21T08:46:03.791Z,1.84
2023-04-21T08:47:04.146Z,1.87
2023-04-21T08:47:13.147Z,1.84
2023-04-21T08:48:13.509Z,1.84
2023-04-21T08:49:14.373Z,1.62
2023-04-21T08:50:14.815Z,1.80
2023-04-21T08:51:15.190Z,2.01
2023-04-21T08:52:15.663Z,1.98
2023-04-21T08:53:16.150Z,1.94
2023-04-21T08:54:16.539Z,1.84
2023-04-21T08:55:17.023Z,1.41
2023-04-21T08:56:17.557Z,1.77
2023-04-21T08:57:18.125Z,2.01
2023-04-21T08:58:18.529Z,2.01
2023-04-21T08:58:27.143Z,1.98
2023-04-21T08:59:27.454Z,0.95
2023-04-21T09:00:27.999Z,2.01
2023-04-21T09:01:28.806Z,2.05
2023-04-21T09:02:29.238Z,2.05
2023-04-21T09:03:31.131Z,1.94
2023-04-21T09:04:30.480Z,2.16
2023-04-21T09:05:31.344Z,1.66
2023-04-21T09:06:31.795Z,2.19
2023-04-21T09:07:32.356Z,2.19
2023-04-21T09:08:32.728Z,0.95
2023-04-21T09:08:41.849Z,1.09
2023-04-21T09:09:42.555Z,2.05
2023-04-21T09:10:43.248Z,2.19
2023-04-21T09:11:43.489Z,2.19
2023-04-21T09:12:45.470Z,2.09
2023-04-21T09:13:45.220Z,2.09
2023-04-21T09:14:45.878Z,0.95
2023-04-21T09:15:46.408Z,1.62
2023-04-21T09:16:46.843Z,2.12
2023-04-21T09:17:47.420Z,1.52
2023-04-21T09:18:48.167Z,1.98
2023-04-21T09:19:50.115Z,1.84
2023-04-21T09:20:49.573Z,2.16
2023-04-21T09:21:50.054Z,1.12
2023-04-21T09:22:02.267Z,1.12
2023-04-21T09:23:02.824Z,0.91
2023-04-21T09:24:04.386Z,1.12
2023-04-21T09:25:03.895Z,2.26
2023-04-21T09:26:04.715Z,1.02
2023-04-21T09:27:06.248Z,0.91
2023-04-21T09:28:06.024Z,1.84
2023-04-21T09:29:06.450Z,2.05
2023-04-21T09:30:06.841Z,1.09
2023-04-21T09:31:07.578Z,2.12
2023-04-21T09:32:11.205Z,2.05
2023-04-21T09:33:19.998Z,1.16
2023-04-21T09:33:27.971Z,1.20
2023-04-21T09:34:19.961Z,2.19
2023-04-21T09:35:21.451Z,2.30
2023-04-21T09:36:20.846Z,1.16
2023-04-21T09:37:21.212Z,2.30
2023-04-21T09:38:21.761Z,2.26
2023-04-21T09:39:38.325Z,2.30
2023-04-21T09:40:23.210Z,2.26
2023-04-21T09:41:23.625Z,2.26
2023-04-21T09:42:24.609Z,2.26
2023-04-21T09:43:25.164Z,2.01
2023-04-21T09:44:25.489Z,2.30
2023-04-21T09:44:46.744Z,2.26
2023-04-21T09:45:40.276Z,2.26
2023-04-21T09:46:35.042Z,2.30
2023-04-21T09:47:35.496Z,2.26
2023-04-21T09:48:36.118Z,2.37
2023-04-21T09:49:36.684Z,2.30
2023-04-21T09:52:05.778Z,2.30
2023-04-21T09:52:38.404Z,2.37
2023-04-21T09:53:38.804Z,2.09
2023-04-21T09:54:39.241Z,1.37
2023-04-21T09:54:49.873Z,1.30
2023-04-21T09:55:50.196Z,1.12
2023-04-21T09:56:51.007Z,0.91
2023-04-21T09:57:51.541Z,0.88
2023-04-21T09:58:52.347Z,1.12
2023-04-21T09:59:52.802Z,2.16
2023-04-21T10:00:52.907Z,2.26
2023-04-21T10:01:53.466Z,2.37
2023-04-21T10:02:54.485Z,2.37
2023-04-21T10:03:55.037Z,2.37
2023-04-21T10:04:55.739Z,2.05
2023-04-21T10:05:04.317Z,2.37
2023-04-21T10:06:04.639Z,2.37
2023-04-21T10:07:05.102Z,1.30
2023-04-21T10:08:05.537Z,2.01
2023-04-21T10:09:06.432Z,1.98
2023-04-21T10:10:06.880Z,2.48
2023-04-21T10:11:07.308Z,2.44
2023-04-21T10:12:09.431Z,2.37
2023-04-21T10:13:08.370Z,1.41
2023-04-21T10:14:08.899Z,0.84
2023-04-21T10:15:09.618Z,2.37
2023-04-21T10:16:10.173Z,2.26
2023-04-21T10:16:22.768Z,2.37
2023-04-21T10:17:23.107Z,2.37
2023-04-21T10:18:24.934Z,2.37
2023-04-21T10:19:24.592Z,2.37
2023-04-21T10:20:25.178Z,2.30
2023-04-21T10:21:25.598Z,2.30
2023-04-21T10:22:26.155Z,2.37
2023-04-21T10:23:27.153Z,2.19
2023-04-21T10:24:27.905Z,2.30
2023-04-21T10:25:28.427Z,2.41
2023-04-21T10:26:28.960Z,2.37
2023-04-21T10:27:29.473Z,2.30
2023-04-21T10:27:38.093Z,2.44
2023-04-21T10:28:38.976Z,2.41
2023-04-21T10:29:55.605Z,2.09
2023-04-21T10:30:40.072Z,1.09
2023-04-21T10:31:41.029Z,2.44
2023-04-21T10:32:41.519Z,2.41
2023-04-21T10:33:41.831Z,2.44
2023-04-21T10:34:42.529Z,2.44
2023-04-21T10:35:43.353Z,2.41
2023-04-21T10:36:44.529Z,2.37
2023-04-21T10:37:44.066Z,1.44
2023-04-21T10:37:56.029Z,1.16
2023-04-21T10:38:55.205Z,2.26
2023-04-21T10:39:55.753Z,2.19
2023-04-21T10:40:55.909Z,0.98
2023-04-21T10:41:55.856Z,1.16
2023-04-21T10:42:56.140Z,2.48
2023-04-21T10:43:56.828Z,2.23
2023-04-21T10:44:58.130Z,1.20
2023-04-21T10:45:57.726Z,1.41
2023-04-21T10:46:58.342Z,1.12
2023-04-21T10:47:58.818Z,1.34
2023-04-21T10:48:09.552Z,1.94
2023-04-21T10:49:09.482Z,2.41
2023-04-21T10:50:10.206Z,2.44
2023-04-21T10:51:10.658Z,2.44
2023-04-21T10:52:11.245Z,2.44
2023-04-21T10:53:11.759Z,2.44
2023-04-21T10:54:12.255Z,1.27
2023-04-21T10:55:12.852Z,1.09
2023-04-21T10:56:13.212Z,2.41
2023-04-21T10:57:14.133Z,2.48
2023-04-21T10:58:14.944Z,2.44
2023-04-21T10:59:15.701Z,2.48
2023-04-21T10:59:29.967Z,2.48
2023-04-21T11:00:30.821Z,2.48
2023-04-21T11:01:31.425Z,2.44
2023-04-21T11:02:31.931Z,1.98
2023-04-21T11:03:32.763Z,2.37
2023-04-21T11:04:33.056Z,2.16
2023-04-21T11:05:33.723Z,2.58
2023-04-21T11:06:33.986Z,2.51
2023-04-21T11:07:34.561Z,2.51
2023-04-21T11:08:35.838Z,2.44
2023-04-21T11:09:35.211Z,2.51
2023-04-21T11:10:35.890Z,2.51
2023-04-21T11:11:36.786Z,2.51
2023-04-21T11:11:47.940Z,2.51
2023-04-21T11:12:48.507Z,1.87
2023-04-21T11:13:49.078Z,2.44
2023-04-21T11:14:49.162Z,2.55
2023-04-21T11:15:49.552Z,2.55
2023-04-21T11:16:50.062Z,2.41
2023-04-21T11:17:51.278Z,1.27
2023-04-21T11:18:51.097Z,1.02
2023-04-21T11:19:54.077Z,1.09
2023-04-21T11:20:52.148Z,2.26
2023-04-21T11:21:52.439Z,2.55
2023-04-21T11:22:53.511Z,2.01
2023-04-21T11:23:54.259Z,1.12
2023-04-21T11:24:02.831Z,1.12
2023-04-21T11:25:03.275Z,1.02
2023-04-21T11:26:03.524Z,0.98
2023-04-21T11:27:03.988Z,1.02
2023-04-21T11:28:04.943Z,2.51
2023-04-21T11:29:06.415Z,2.55
2023-04-21T11:30:05.835Z,2.51
2023-04-21T11:31:06.547Z,2.55
2023-04-21T11:32:06.938Z,2.44
2023-04-21T11:33:08.569Z,2.55
2023-04-21T11:34:08.483Z,2.62
2023-04-21T11:35:09.240Z,2.55
2023-04-21T11:36:09.753Z,2.55
2023-04-21T11:36:19.846Z,2.51
2023-04-21T11:37:20.235Z,2.55
2023-04-21T11:38:20.677Z,2.55
2023-04-21T11:39:21.980Z,2.51
2023-04-21T11:40:21.749Z,1.27
2023-04-21T11:41:22.121Z,1.73
2023-04-21T11:42:22.799Z,0.98
2023-04-21T11:43:23.970Z,1.41
2023-04-21T11:44:23.509Z,1.55
2023-04-21T11:45:23.974Z,1.12
2023-04-21T11:46:25.693Z,2.48
2023-04-21T11:47:25.226Z,0.91
2023-04-21T11:47:36.818Z,0.98
2023-04-21T11:48:38.382Z,1.02
2023-04-21T11:49:37.302Z,1.12
2023-04-21T11:50:37.848Z,2.44
2023-04-21T11:51:38.601Z,1.02
2023-04-21T11:52:39.087Z,1.09
2023-04-21T11:53:39.277Z,1.16
2023-04-21T11:54:39.561Z,2.44
2023-04-21T11:55:39.638Z,2.51
2023-04-21T11:56:40.290Z,1.94
2023-04-21T11:57:40.741Z,1.16
2023-04-21T11:58:41.084Z,2.19
2023-04-21T11:58:52.997Z,1.20
2023-04-21T11:59:53.399Z,2.44
2023-04-21T12:00:54.132Z,1.37
2023-04-21T12:01:55.503Z,2.37
2023-04-21T12:02:55.216Z,1.09
2023-04-21T12:03:57.189Z,0.88
2023-04-21T12:04:56.809Z,2.48
2023-04-21T12:05:57.843Z,2.44
2023-04-21T12:06:58.036Z,2.51
2023-04-21T12:07:58.550Z,2.44
2023-04-21T12:08:59.169Z,2.30
2023-04-21T12:09:08.307Z,2.41
2023-04-21T12:10:08.629Z,2.37
2023-04-21T12:11:08.914Z,2.37
2023-04-21T12:12:09.322Z,2.41
2023-04-21T12:13:09.735Z,2.26
2023-04-21T12:14:10.586Z,2.26
2023-04-21T12:15:11.201Z,2.19
2023-04-21T12:16:11.742Z,2.30
2023-04-21T12:17:12.270Z,2.37
2023-04-21T12:18:12.700Z,2.44
2023-04-21T12:19:13.093Z,0.91
2023-04-21T12:20:13.893Z,0.80
2023-04-21T12:21:14.884Z,0.80
2023-04-21T12:21:24.848Z,0.80
2023-04-21T12:22:24.815Z,1.55
2023-04-21T12:23:25.279Z,2.30
2023-04-21T12:24:25.924Z,2.30
2023-04-21T12:25:26.083Z,2.26
2023-04-21T12:26:26.719Z,2.16
2023-04-21T12:27:27.264Z,2.23
2023-04-21T12:28:27.992Z,2.19
2023-04-21T12:29:28.624Z,2.16